sensor_id;sensor_type;location;lat;lon;timestamp;P1;durP1;ratioP1;P2;durP2;ratioP2
19854;SDS011;10088;47.946;2.532;2023-05-07T00:01:28;1.73;;;0.53;;
19854;SDS011;10088;47.946;2.532;2023-05-07T00:03:53;0.93;;;0.40;;
19854;SDS011;10088;47.946;2.532;2023-05-07T00:06:18;1.27;;;0.90;;
19854;SDS011;10088;47.946;2.532;2023-05-07T00:08:44;1.73;;;0.60;;
19854;SDS011;10088;47.946;2.532;2023-05-07T00:11:10;3.83;;;0.60;;
19854;SDS011;10088;47.946;2.532;2023-05-07T00:13:35;0.50;;;0.50;;
19854;SDS011;10088;47.946;2.532;2023-05-07T00:16:01;0.60;;;0.60;;
19854;SDS011;10088;47.946;2.532;2023-05-07T00:18:26;3.30;;;0.73;;
19854;SDS011;10088;47.946;2.532;2023-05-07T00:20:52;1.13;;;0.80;;
19854;SDS011;10088;47.946;2.532;2023-05-07T00:23:17;2.63;;;0.80;;
19854;SDS011;10088;47.946;2.532;2023-05-07T00:25:42;4.83;;;0.63;;
19854;SDS011;10088;47.946;2.532;2023-05-07T00:28:07;0.37;;;0.30;;
19854;SDS011;10088;47.946;2.532;2023-05-07T00:30:33;1.70;;;0.63;;
19854;SDS011;10088;47.946;2.532;2023-05-07T00:32:58;1.13;;;0.53;;
19854;SDS011;10088;47.946;2.532;2023-05-07T00:35:23;0.80;;;0.40;;
19854;SDS011;10088;47.946;2.532;2023-05-07T00:37:48;0.83;;;0.53;;
19854;SDS011;10088;47.946;2.532;2023-05-07T00:40:14;0.83;;;0.70;;
19854;SDS011;10088;47.946;2.532;2023-05-07T00:42:39;0.73;;;0.60;;
19854;SDS011;10088;47.946;2.532;2023-05-07T00:45:05;2.37;;;0.60;;
19854;SDS011;10088;47.946;2.532;2023-05-07T00:47:30;1.10;;;0.60;;
19854;SDS011;10088;47.946;2.532;2023-05-07T00:49:56;1.57;;;0.40;;
19854;SDS011;10088;47.946;2.532;2023-05-07T00:52:22;1.03;;;0.60;;
19854;SDS011;10088;47.946;2.532;2023-05-07T00:54:48;1.37;;;0.80;;
19854;SDS011;10088;47.946;2.532;2023-05-07T00:57:14;3.03;;;0.80;;
19854;SDS011;10088;47.946;2.532;2023-05-07T00:59:39;1.63;;;0.70;;
19854;SDS011;10088;47.946;2.532;2023-05-07T01:02:05;2.40;;;0.60;;
19854;SDS011;10088;47.946;2.532;2023-05-07T01:04:31;2.83;;;0.77;;
19854;SDS011;10088;47.946;2.532;2023-05-07T01:06:56;3.13;;;0.70;;
19854;SDS011;10088;47.946;2.532;2023-05-07T01:09:25;3.00;;;0.97;;
19854;SDS011;10088;47.946;2.532;2023-05-07T01:11:50;2.07;;;0.63;;
19854;SDS011;10088;47.946;2.532;2023-05-07T01:14:17;0.93;;;0.70;;
19854;SDS011;10088;47.946;2.532;2023-05-07T01:16:42;2.57;;;0.90;;
19854;SDS011;10088;47.946;2.532;2023-05-07T01:19:08;1.13;;;0.70;;
19854;SDS011;10088;47.946;2.532;2023-05-07T01:21:33;1.60;;;0.50;;
19854;SDS011;10088;47.946;2.532;2023-05-07T01:23:59;2.13;;;0.70;;
19854;SDS011;10088;47.946;2.532;2023-05-07T01:26:25;2.77;;;0.70;;
19854;SDS011;10088;47.946;2.532;2023-05-07T01:28:50;0.93;;;0.60;;
19854;SDS011;10088;47.946;2.532;2023-05-07T01:31:16;0.93;;;0.57;;
19854;SDS011;10088;47.946;2.532;2023-05-07T01:33:41;2.27;;;0.80;;
19854;SDS011;10088;47.946;2.532;2023-05-07T01:36:08;2.70;;;0.53;;
19854;SDS011;10088;47.946;2.532;2023-05-07T01:38:34;2.00;;;1.07;;
19854;SDS011;10088;47.946;2.532;2023-05-07T01:41:00;1.00;;;0.63;;
19854;SDS011;10088;47.946;2.532;2023-05-07T01:43:26;2.00;;;0.90;;
19854;SDS011;10088;47.946;2.532;2023-05-07T01:45:51;3.90;;;0.90;;
19854;SDS011;10088;47.946;2.532;2023-05-07T01:48:17;3.37;;;0.57;;
19854;SDS011;10088;47.946;2.532;2023-05-07T01:50:43;0.90;;;0.60;;
19854;SDS011;10088;47.946;2.532;2023-05-07T01:53:09;2.30;;;0.70;;
19854;SDS011;10088;47.946;2.532;2023-05-07T01:55:34;2.47;;;0.93;;
19854;SDS011;10088;47.946;2.532;2023-05-07T01:58:01;2.37;;;0.60;;
19854;SDS011;10088;47.946;2.532;2023-05-07T02:00:27;2.20;;;0.70;;
19854;SDS011;10088;47.946;2.532;2023-05-07T02:02:52;2.27;;;0.77;;
19854;SDS011;10088;47.946;2.532;2023-05-07T02:05:18;2.93;;;0.60;;
19854;SDS011;10088;47.946;2.532;2023-05-07T02:07:43;2.10;;;0.80;;
19854;SDS011;10088;47.946;2.532;2023-05-07T02:10:08;3.33;;;0.80;;
19854;SDS011;10088;47.946;2.532;2023-05-07T02:12:34;1.40;;;0.80;;
19854;SDS011;10088;47.946;2.532;2023-05-07T02:14:59;1.47;;;0.80;;
19854;SDS011;10088;47.946;2.532;2023-05-07T02:17:24;2.20;;;0.80;;
19854;SDS011;10088;47.946;2.532;2023-05-07T02:19:51;2.50;;;0.90;;
19854;SDS011;10088;47.946;2.532;2023-05-07T02:22:16;1.27;;;0.67;;
19854;SDS011;10088;47.946;2.532;2023-05-07T02:24:41;1.37;;;0.90;;
19854;SDS011;10088;47.946;2.532;2023-05-07T02:27:06;1.20;;;0.80;;
19854;SDS011;10088;47.946;2.532;2023-05-07T02:29:32;1.53;;;0.60;;
19854;SDS011;10088;47.946;2.532;2023-05-07T02:31:57;1.47;;;0.70;;
19854;SDS011;10088;47.946;2.532;2023-05-07T02:34:22;1.27;;;0.80;;
19854;SDS011;10088;47.946;2.532;2023-05-07T02:36:47;3.90;;;0.83;;
19854;SDS011;10088;47.946;2.532;2023-05-07T02:39:13;1.17;;;0.70;;
19854;SDS011;10088;47.946;2.532;2023-05-07T02:41:38;4.53;;;0.87;;
19854;SDS011;10088;47.946;2.532;2023-05-07T02:44:03;2.17;;;0.77;;
19854;SDS011;10088;47.946;2.532;2023-05-07T02:46:29;3.93;;;0.90;;
19854;SDS011;10088;47.946;2.532;2023-05-07T02:48:54;1.80;;;0.80;;
19854;SDS011;10088;47.946;2.532;2023-05-07T02:51:20;3.43;;;0.77;;
19854;SDS011;10088;47.946;2.532;2023-05-07T02:53:46;2.70;;;0.70;;
19854;SDS011;10088;47.946;2.532;2023-05-07T02:56:11;1.57;;;0.97;;
19854;SDS011;10088;47.946;2.532;2023-05-07T02:58:36;2.73;;;1.13;;
19854;SDS011;10088;47.946;2.532;2023-05-07T03:01:04;1.93;;;1.00;;
19854;SDS011;10088;47.946;2.532;2023-05-07T03:03:29;3.17;;;0.80;;
19854;SDS011;10088;47.946;2.532;2023-05-07T03:05:54;2.03;;;0.80;;
19854;SDS011;10088;47.946;2.532;2023-05-07T03:08:20;3.30;;;0.60;;
19854;SDS011;10088;47.946;2.532;2023-05-07T03:10:46;2.30;;;1.00;;
19854;SDS011;10088;47.946;2.532;2023-05-07T03:13:11;0.60;;;0.60;;
19854;SDS011;10088;47.946;2.532;2023-05-07T03:15:36;2.37;;;0.70;;
19854;SDS011;10088;47.946;2.532;2023-05-07T03:18:02;0.97;;;0.73;;
19854;SDS011;10088;47.946;2.532;2023-05-07T03:20:27;1.20;;;0.77;;
19854;SDS011;10088;47.946;2.532;2023-05-07T03:22:52;1.20;;;0.83;;
19854;SDS011;10088;47.946;2.532;2023-05-07T03:25:17;2.43;;;0.80;;
19854;SDS011;10088;47.946;2.532;2023-05-07T03:27:42;1.67;;;0.70;;
19854;SDS011;10088;47.946;2.532;2023-05-07T03:30:08;2.03;;;1.07;;
19854;SDS011;10088;47.946;2.532;2023-05-07T03:32:34;1.67;;;0.87;;
19854;SDS011;10088;47.946;2.532;2023-05-07T03:35:00;5.37;;;0.80;;
19854;SDS011;10088;47.946;2.532;2023-05-07T03:37:25;1.90;;;1.10;;
19854;SDS011;10088;47.946;2.532;2023-05-07T03:39:51;1.13;;;0.90;;
19854;SDS011;10088;47.946;2.532;2023-05-07T03:42:16;1.03;;;0.70;;
19854;SDS011;10088;47.946;2.532;2023-05-07T03:44:41;3.03;;;0.90;;
19854;SDS011;10088;47.946;2.532;2023-05-07T03:47:06;1.10;;;0.80;;
19854;SDS011;10088;47.946;2.532;2023-05-07T03:49:32;2.13;;;0.70;;
19854;SDS011;10088;47.946;2.532;2023-05-07T03:51:58;1.73;;;0.90;;
19854;SDS011;10088;47.946;2.532;2023-05-07T03:54:23;3.07;;;0.90;;
19854;SDS011;10088;47.946;2.532;2023-05-07T03:56:48;2.03;;;0.60;;
19854;SDS011;10088;47.946;2.532;2023-05-07T03:59:13;1.03;;;0.60;;
19854;SDS011;10088;47.946;2.532;2023-05-07T04:01:39;2.50;;;0.87;;
19854;SDS011;10088;47.946;2.532;2023-05-07T04:04:04;1.30;;;0.70;;
19854;SDS011;10088;47.946;2.532;2023-05-07T04:06:30;0.60;;;0.50;;
19854;SDS011;10088;47.946;2.532;2023-05-07T04:08:55;1.93;;;0.60;;
19854;SDS011;10088;47.946;2.532;2023-05-07T04:11:20;2.80;;;0.80;;
19854;SDS011;10088;47.946;2.532;2023-05-07T04:13:46;2.10;;;0.70;;
19854;SDS011;10088;47.946;2.532;2023-05-07T04:16:11;1.87;;;0.90;;
19854;SDS011;10088;47.946;2.532;2023-05-07T04:18:36;1.80;;;0.80;;
19854;SDS011;10088;47.946;2.532;2023-05-07T04:21:01;1.83;;;0.87;;
19854;SDS011;10088;47.946;2.532;2023-05-07T04:23:27;2.00;;;0.80;;
19854;SDS011;10088;47.946;2.532;2023-05-07T04:25:52;0.70;;;0.70;;
19854;SDS011;10088;47.946;2.532;2023-05-07T04:28:17;1.03;;;0.77;;
19854;SDS011;10088;47.946;2.532;2023-05-07T04:30:43;1.90;;;0.63;;
19854;SDS011;10088;47.946;2.532;2023-05-07T04:33:08;1.90;;;1.20;;
19854;SDS011;10088;47.946;2.532;2023-05-07T04:35:34;0.60;;;0.60;;
19854;SDS011;10088;47.946;2.532;2023-05-07T04:37:59;1.57;;;0.90;;
19854;SDS011;10088;47.946;2.532;2023-05-07T04:40:25;3.80;;;1.00;;
19854;SDS011;10088;47.946;2.532;2023-05-07T04:42:50;2.83;;;0.97;;
19854;SDS011;10088;47.946;2.532;2023-05-07T04:45:16;4.83;;;1.03;;
19854;SDS011;10088;47.946;2.532;2023-05-07T04:47:41;2.03;;;0.80;;
19854;SDS011;10088;47.946;2.532;2023-05-07T04:50:07;5.13;;;0.97;;
19854;SDS011;10088;47.946;2.532;2023-05-07T04:52:33;1.07;;;0.63;;
19854;SDS011;10088;47.946;2.532;2023-05-07T04:55:01;0.90;;;0.80;;
19854;SDS011;10088;47.946;2.532;2023-05-07T04:57:26;2.40;;;1.10;;
19854;SDS011;10088;47.946;2.532;2023-05-07T04:59:52;1.73;;;1.20;;
19854;SDS011;10088;47.946;2.532;2023-05-07T05:02:17;2.43;;;1.30;;
19854;SDS011;10088;47.946;2.532;2023-05-07T05:04:43;2.07;;;0.83;;
19854;SDS011;10088;47.946;2.532;2023-05-07T05:07:08;2.00;;;0.80;;
19854;SDS011;10088;47.946;2.532;2023-05-07T05:09:33;1.00;;;0.80;;
19854;SDS011;10088;47.946;2.532;2023-05-07T05:11:58;0.80;;;0.80;;
19854;SDS011;10088;47.946;2.532;2023-05-07T05:14:24;2.37;;;0.70;;
19854;SDS011;10088;47.946;2.532;2023-05-07T05:16:49;0.70;;;0.70;;
19854;SDS011;10088;47.946;2.532;2023-05-07T05:19:14;1.13;;;0.70;;
19854;SDS011;10088;47.946;2.532;2023-05-07T05:21:40;0.90;;;0.60;;
19854;SDS011;10088;47.946;2.532;2023-05-07T05:24:05;0.60;;;0.60;;
19854;SDS011;10088;47.946;2.532;2023-05-07T05:26:30;1.03;;;0.80;;
19854;SDS011;10088;47.946;2.532;2023-05-07T05:28:55;1.03;;;0.70;;
19854;SDS011;10088;47.946;2.532;2023-05-07T05:31:21;1.10;;;0.77;;
19854;SDS011;10088;47.946;2.532;2023-05-07T05:33:46;0.70;;;0.70;;
19854;SDS011;10088;47.946;2.532;2023-05-07T05:36:11;1.40;;;0.80;;
19854;SDS011;10088;47.946;2.532;2023-05-07T05:38:38;3.13;;;0.73;;
19854;SDS011;10088;47.946;2.532;2023-05-07T05:41:03;5.43;;;1.03;;
19854;SDS011;10088;47.946;2.532;2023-05-07T05:43:28;0.70;;;0.70;;
19854;SDS011;10088;47.946;2.532;2023-05-07T05:45:55;3.03;;;0.77;;
19854;SDS011;10088;47.946;2.532;2023-05-07T05:48:20;0.93;;;0.90;;
19854;SDS011;10088;47.946;2.532;2023-05-07T05:50:45;1.27;;;0.80;;
19854;SDS011;10088;47.946;2.532;2023-05-07T05:53:11;1.70;;;0.97;;
19854;SDS011;10088;47.946;2.532;2023-05-07T05:55:36;1.57;;;0.90;;
19854;SDS011;10088;47.946;2.532;2023-05-07T05:58:01;1.97;;;1.10;;
19854;SDS011;10088;47.946;2.532;2023-05-07T06:00:27;1.23;;;1.10;;
19854;SDS011;10088;47.946;2.532;2023-05-07T06:02:52;1.07;;;0.90;;
19854;SDS011;10088;47.946;2.532;2023-05-07T06:05:18;1.20;;;0.87;;
19854;SDS011;10088;47.946;2.532;2023-05-07T06:07:43;1.00;;;0.90;;
19854;SDS011;10088;47.946;2.532;2023-05-07T06:10:08;2.70;;;0.93;;
19854;SDS011;10088;47.946;2.532;2023-05-07T06:12:33;1.33;;;1.00;;
19854;SDS011;10088;47.946;2.532;2023-05-07T06:14:59;0.80;;;0.80;;
19854;SDS011;10088;47.946;2.532;2023-05-07T06:17:24;3.03;;;1.10;;
19854;SDS011;10088;47.946;2.532;2023-05-07T06:19:49;1.57;;;1.00;;
19854;SDS011;10088;47.946;2.532;2023-05-07T06:22:15;3.07;;;1.13;;
19854;SDS011;10088;47.946;2.532;2023-05-07T06:24:40;0.80;;;0.80;;
19854;SDS011;10088;47.946;2.532;2023-05-07T06:27:05;1.60;;;1.00;;
19854;SDS011;10088;47.946;2.532;2023-05-07T06:29:30;2.07;;;1.00;;
19854;SDS011;10088;47.946;2.532;2023-05-07T06:32:05;2.10;;;0.93;;
19854;SDS011;10088;47.946;2.532;2023-05-07T06:34:31;1.97;;;0.80;;
19854;SDS011;10088;47.946;2.532;2023-05-07T06:36:56;1.37;;;1.07;;
19854;SDS011;10088;47.946;2.532;2023-05-07T06:39:21;1.00;;;0.90;;
19854;SDS011;10088;47.946;2.532;2023-05-07T06:41:46;1.33;;;1.03;;
19854;SDS011;10088;47.946;2.532;2023-05-07T06:44:12;1.37;;;1.03;;
19854;SDS011;10088;47.946;2.532;2023-05-07T06:46:37;2.73;;;0.93;;
19854;SDS011;10088;47.946;2.532;2023-05-07T06:49:02;4.00;;;1.10;;
19854;SDS011;10088;47.946;2.532;2023-05-07T06:51:27;0.97;;;0.83;;
19854;SDS011;10088;47.946;2.532;2023-05-07T06:53:53;2.60;;;1.00;;
19854;SDS011;10088;47.946;2.532;2023-05-07T06:56:18;1.27;;;1.17;;
19854;SDS011;10088;47.946;2.532;2023-05-07T06:58:43;1.23;;;1.00;;
19854;SDS011;10088;47.946;2.532;2023-05-07T07:01:08;1.47;;;1.00;;
19854;SDS011;10088;47.946;2.532;2023-05-07T07:03:34;1.63;;;1.07;;
19854;SDS011;10088;47.946;2.532;2023-05-07T07:05:59;2.23;;;0.90;;
19854;SDS011;10088;47.946;2.532;2023-05-07T07:08:26;1.93;;;1.03;;
19854;SDS011;10088;47.946;2.532;2023-05-07T07:10:52;1.53;;;1.03;;
19854;SDS011;10088;47.946;2.532;2023-05-07T07:13:17;2.30;;;1.20;;
19854;SDS011;10088;47.946;2.532;2023-05-07T07:15:43;1.10;;;0.97;;
19854;SDS011;10088;47.946;2.532;2023-05-07T07:18:08;1.43;;;0.90;;
19854;SDS011;10088;47.946;2.532;2023-05-07T07:20:33;2.43;;;1.10;;
19854;SDS011;10088;47.946;2.532;2023-05-07T07:22:59;1.57;;;1.07;;
19854;SDS011;10088;47.946;2.532;2023-05-07T07:25:24;0.97;;;0.87;;
19854;SDS011;10088;47.946;2.532;2023-05-07T07:27:49;2.00;;;1.40;;
19854;SDS011;10088;47.946;2.532;2023-05-07T07:30:15;2.33;;;1.13;;
19854;SDS011;10088;47.946;2.532;2023-05-07T07:32:40;1.90;;;1.23;;
19854;SDS011;10088;47.946;2.532;2023-05-07T07:35:06;2.70;;;1.10;;
19854;SDS011;10088;47.946;2.532;2023-05-07T07:37:31;0.97;;;0.87;;
19854;SDS011;10088;47.946;2.532;2023-05-07T07:39:56;5.57;;;1.70;;
19854;SDS011;10088;47.946;2.532;2023-05-07T07:42:21;2.10;;;1.20;;
19854;SDS011;10088;47.946;2.532;2023-05-07T07:44:47;1.33;;;1.00;;
19854;SDS011;10088;47.946;2.532;2023-05-07T07:47:13;1.07;;;1.07;;
19854;SDS011;10088;47.946;2.532;2023-05-07T07:49:38;1.40;;;1.03;;
19854;SDS011;10088;47.946;2.532;2023-05-07T07:52:03;2.33;;;1.00;;
19854;SDS011;10088;47.946;2.532;2023-05-07T07:54:29;3.83;;;1.00;;
19854;SDS011;10088;47.946;2.532;2023-05-07T07:56:55;2.67;;;1.10;;
19854;SDS011;10088;47.946;2.532;2023-05-07T07:59:20;1.20;;;1.07;;
19854;SDS011;10088;47.946;2.532;2023-05-07T08:01:45;2.27;;;1.17;;
19854;SDS011;10088;47.946;2.532;2023-05-07T08:04:13;1.17;;;1.03;;
19854;SDS011;10088;47.946;2.532;2023-05-07T08:06:38;1.33;;;1.10;;
19854;SDS011;10088;47.946;2.532;2023-05-07T08:09:03;2.50;;;1.10;;
19854;SDS011;10088;47.946;2.532;2023-05-07T08:11:28;2.83;;;0.93;;
19854;SDS011;10088;47.946;2.532;2023-05-07T08:13:54;1.30;;;1.07;;
19854;SDS011;10088;47.946;2.532;2023-05-07T08:16:20;2.67;;;0.87;;
19854;SDS011;10088;47.946;2.532;2023-05-07T08:18:45;2.43;;;0.83;;
19854;SDS011;10088;47.946;2.532;2023-05-07T08:21:10;1.30;;;0.83;;
19854;SDS011;10088;47.946;2.532;2023-05-07T08:23:35;2.77;;;0.90;;
19854;SDS011;10088;47.946;2.532;2023-05-07T08:26:01;1.13;;;1.03;;
19854;SDS011;10088;47.946;2.532;2023-05-07T08:28:26;4.40;;;2.33;;
19854;SDS011;10088;47.946;2.532;2023-05-07T08:30:52;2.23;;;1.67;;
19854;SDS011;10088;47.946;2.532;2023-05-07T08:33:17;2.07;;;1.10;;
19854;SDS011;10088;47.946;2.532;2023-05-07T08:35:42;1.83;;;1.00;;
19854;SDS011;10088;47.946;2.532;2023-05-07T08:38:07;3.40;;;1.20;;
19854;SDS011;10088;47.946;2.532;2023-05-07T08:40:36;2.20;;;1.20;;
19854;SDS011;10088;47.946;2.532;2023-05-07T08:43:02;1.37;;;1.20;;
19854;SDS011;10088;47.946;2.532;2023-05-07T08:45:28;1.53;;;1.10;;
19854;SDS011;10088;47.946;2.532;2023-05-07T08:47:58;2.20;;;1.40;;
19854;SDS011;10088;47.946;2.532;2023-05-07T08:50:23;1.83;;;1.73;;
19854;SDS011;10088;47.946;2.532;2023-05-07T08:52:49;2.57;;;1.37;;
19854;SDS011;10088;47.946;2.532;2023-05-07T08:55:14;2.20;;;1.93;;
19854;SDS011;10088;47.946;2.532;2023-05-07T08:57:40;2.30;;;1.83;;
19854;SDS011;10088;47.946;2.532;2023-05-07T09:00:05;3.93;;;1.67;;
19854;SDS011;10088;47.946;2.532;2023-05-07T09:02:32;3.57;;;1.90;;
19854;SDS011;10088;47.946;2.532;2023-05-07T09:04:57;3.83;;;1.90;;
19854;SDS011;10088;47.946;2.532;2023-05-07T09:07:22;3.23;;;1.77;;
19854;SDS011;10088;47.946;2.532;2023-05-07T09:09:48;2.77;;;1.60;;
19854;SDS011;10088;47.946;2.532;2023-05-07T09:12:14;3.80;;;1.87;;
19854;SDS011;10088;47.946;2.532;2023-05-07T09:14:39;1.80;;;1.70;;
19854;SDS011;10088;47.946;2.532;2023-05-07T09:17:04;2.17;;;1.67;;
19854;SDS011;10088;47.946;2.532;2023-05-07T09:19:30;2.77;;;1.90;;
19854;SDS011;10088;47.946;2.532;2023-05-07T09:21:59;2.33;;;2.13;;
19854;SDS011;10088;47.946;2.532;2023-05-07T09:24:25;3.13;;;2.37;;
19854;SDS011;10088;47.946;2.532;2023-05-07T09:26:50;3.30;;;2.57;;
19854;SDS011;10088;47.946;2.532;2023-05-07T09:29:15;4.53;;;2.20;;
19854;SDS011;10088;47.946;2.532;2023-05-07T09:34:33;4.57;;;2.80;;
19854;SDS011;10088;47.946;2.532;2023-05-07T09:37:07;3.90;;;3.30;;
19854;SDS011;10088;47.946;2.532;2023-05-07T09:39:46;4.73;;;3.43;;
19854;SDS011;10088;47.946;2.532;2023-05-07T09:42:36;6.30;;;3.50;;
19854;SDS011;10088;47.946;2.532;2023-05-07T09:45:12;4.90;;;3.23;;
19854;SDS011;10088;47.946;2.532;2023-05-07T09:48:18;6.03;;;3.60;;
19854;SDS011;10088;47.946;2.532;2023-05-07T09:54:07;4.30;;;3.47;;
19854;SDS011;10088;47.946;2.532;2023-05-07T09:57:16;3.93;;;3.50;;
19854;SDS011;10088;47.946;2.532;2023-05-07T10:00:10;6.57;;;3.50;;
19854;SDS011;10088;47.946;2.532;2023-05-07T10:02:42;6.13;;;3.77;;
19854;SDS011;10088;47.946;2.532;2023-05-07T10:05:19;5.90;;;4.30;;
19854;SDS011;10088;47.946;2.532;2023-05-07T10:07:57;4.27;;;3.70;;
19854;SDS011;10088;47.946;2.532;2023-05-07T10:10:30;5.20;;;4.00;;
19854;SDS011;10088;47.946;2.532;2023-05-07T10:13:34;7.50;;;4.30;;
19854;SDS011;10088;47.946;2.532;2023-05-07T10:19:05;5.33;;;3.17;;
19854;SDS011;10088;47.946;2.532;2023-05-07T10:27:43;3.70;;;2.50;;
19854;SDS011;10088;47.946;2.532;2023-05-07T10:33:37;2.53;;;2.20;;
19854;SDS011;10088;47.946;2.532;2023-05-07T10:36:23;2.10;;;1.90;;
19854;SDS011;10088;47.946;2.532;2023-05-07T10:39:16;2.90;;;1.83;;
19854;SDS011;10088;47.946;2.532;2023-05-07T10:41:53;5.10;;;1.70;;
19854;SDS011;10088;47.946;2.532;2023-05-07T10:44:44;1.80;;;1.70;;
19854;SDS011;10088;47.946;2.532;2023-05-07T10:47:30;1.90;;;1.60;;
19854;SDS011;10088;47.946;2.532;2023-05-07T10:52:37;2.43;;;2.03;;
19854;SDS011;10088;47.946;2.532;2023-05-07T10:55:21;3.03;;;2.43;;
19854;SDS011;10088;47.946;2.532;2023-05-07T10:57:57;2.73;;;2.47;;
19854;SDS011;10088;47.946;2.532;2023-05-07T11:01:04;3.93;;;2.80;;
19854;SDS011;10088;47.946;2.532;2023-05-07T11:03:33;3.87;;;3.03;;
19854;SDS011;10088;47.946;2.532;2023-05-07T11:06:15;3.43;;;3.13;;
19854;SDS011;10088;47.946;2.532;2023-05-07T11:14:51;4.03;;;3.27;;
19854;SDS011;10088;47.946;2.532;2023-05-07T11:17:16;3.40;;;3.10;;
19854;SDS011;10088;47.946;2.532;2023-05-07T11:20:03;3.00;;;2.67;;
19854;SDS011;10088;47.946;2.532;2023-05-07T11:22:41;4.43;;;3.20;;
19854;SDS011;10088;47.946;2.532;2023-05-07T11:25:50;4.53;;;3.13;;
19854;SDS011;10088;47.946;2.532;2023-05-07T11:28:23;4.40;;;3.60;;
19854;SDS011;10088;47.946;2.532;2023-05-07T11:31:17;4.50;;;3.23;;
19854;SDS011;10088;47.946;2.532;2023-05-07T11:33:49;5.07;;;3.40;;
19854;SDS011;10088;47.946;2.532;2023-05-07T11:36:31;4.00;;;2.73;;
19854;SDS011;10088;47.946;2.532;2023-05-07T11:39:05;4.50;;;2.97;;
19854;SDS011;10088;47.946;2.532;2023-05-07T11:41:38;4.20;;;2.63;;
19854;SDS011;10088;47.946;2.532;2023-05-07T11:44:04;3.57;;;2.70;;
19854;SDS011;10088;47.946;2.532;2023-05-07T11:46:29;4.33;;;2.60;;
19854;SDS011;10088;47.946;2.532;2023-05-07T11:48:55;4.17;;;3.00;;
19854;SDS011;10088;47.946;2.532;2023-05-07T11:51:21;4.27;;;2.77;;
19854;SDS011;10088;47.946;2.532;2023-05-07T11:53:47;4.53;;;2.67;;
19854;SDS011;10088;47.946;2.532;2023-05-07T11:56:14;3.43;;;2.20;;
19854;SDS011;10088;47.946;2.532;2023-05-07T11:58:40;3.90;;;2.60;;
19854;SDS011;10088;47.946;2.532;2023-05-07T12:01:07;6.60;;;2.50;;
19854;SDS011;10088;47.946;2.532;2023-05-07T12:03:33;3.47;;;2.57;;
19854;SDS011;10088;47.946;2.532;2023-05-07T12:05:59;5.10;;;2.30;;
19854;SDS011;10088;47.946;2.532;2023-05-07T12:08:24;2.73;;;2.07;;
19854;SDS011;10088;47.946;2.532;2023-05-07T12:10:50;3.33;;;2.00;;
19854;SDS011;10088;47.946;2.532;2023-05-07T12:15:41;4.57;;;2.30;;
19854;SDS011;10088;47.946;2.532;2023-05-07T12:18:07;4.07;;;2.27;;
19854;SDS011;10088;47.946;2.532;2023-05-07T12:20:33;3.53;;;1.90;;
19854;SDS011;10088;47.946;2.532;2023-05-07T12:22:58;3.33;;;2.20;;
19854;SDS011;10088;47.946;2.532;2023-05-07T12:25:24;5.00;;;2.30;;
19854;SDS011;10088;47.946;2.532;2023-05-07T12:27:52;4.33;;;2.00;;
19854;SDS011;10088;47.946;2.532;2023-05-07T12:30:18;2.23;;;1.20;;
19854;SDS011;10088;47.946;2.532;2023-05-07T12:32:44;2.70;;;1.10;;
19854;SDS011;10088;47.946;2.532;2023-05-07T12:35:10;3.33;;;1.23;;
19854;SDS011;10088;47.946;2.532;2023-05-07T12:37:35;1.87;;;1.00;;
19854;SDS011;10088;47.946;2.532;2023-05-07T12:40:08;3.47;;;1.23;;
19854;SDS011;10088;47.946;2.532;2023-05-07T12:42:36;3.20;;;1.27;;
19854;SDS011;10088;47.946;2.532;2023-05-07T12:45:09;3.70;;;1.47;;
19854;SDS011;10088;47.946;2.532;2023-05-07T12:47:34;5.63;;;1.73;;
19854;SDS011;10088;47.946;2.532;2023-05-07T12:50:00;2.90;;;1.23;;
19854;SDS011;10088;47.946;2.532;2023-05-07T12:52:25;5.17;;;1.50;;
19854;SDS011;10088;47.946;2.532;2023-05-07T12:54:50;3.73;;;1.30;;
19854;SDS011;10088;47.946;2.532;2023-05-07T12:57:16;2.90;;;1.43;;
19854;SDS011;10088;47.946;2.532;2023-05-07T12:59:43;2.63;;;1.57;;
19854;SDS011;10088;47.946;2.532;2023-05-07T13:02:09;4.57;;;2.03;;
19854;SDS011;10088;47.946;2.532;2023-05-07T13:04:34;3.40;;;1.70;;
19854;SDS011;10088;47.946;2.532;2023-05-07T13:07:00;4.13;;;1.77;;
19854;SDS011;10088;47.946;2.532;2023-05-07T13:09:25;3.60;;;1.73;;
19854;SDS011;10088;47.946;2.532;2023-05-07T13:11:51;3.20;;;1.47;;
19854;SDS011;10088;47.946;2.532;2023-05-07T13:14:16;6.13;;;1.73;;
19854;SDS011;10088;47.946;2.532;2023-05-07T13:16:41;5.17;;;1.50;;
19854;SDS011;10088;47.946;2.532;2023-05-07T13:19:07;2.40;;;1.60;;
19854;SDS011;10088;47.946;2.532;2023-05-07T13:21:32;4.03;;;1.70;;
19854;SDS011;10088;47.946;2.532;2023-05-07T13:23:57;2.63;;;0.83;;
19854;SDS011;10088;47.946;2.532;2023-05-07T13:26:23;3.60;;;0.90;;
19854;SDS011;10088;47.946;2.532;2023-05-07T13:28:48;2.73;;;0.90;;
19854;SDS011;10088;47.946;2.532;2023-05-07T13:31:13;3.83;;;0.90;;
19854;SDS011;10088;47.946;2.532;2023-05-07T13:33:39;1.90;;;0.80;;
19854;SDS011;10088;47.946;2.532;2023-05-07T13:36:04;3.87;;;1.10;;
19854;SDS011;10088;47.946;2.532;2023-05-07T13:38:30;5.67;;;1.00;;
19854;SDS011;10088;47.946;2.532;2023-05-07T13:40:56;2.20;;;0.90;;
19854;SDS011;10088;47.946;2.532;2023-05-07T13:43:21;2.50;;;0.83;;
19854;SDS011;10088;47.946;2.532;2023-05-07T13:45:46;3.17;;;0.90;;
19854;SDS011;10088;47.946;2.532;2023-05-07T13:48:11;3.53;;;0.90;;
19854;SDS011;10088;47.946;2.532;2023-05-07T13:50:37;2.03;;;1.20;;
19854;SDS011;10088;47.946;2.532;2023-05-07T13:53:02;3.57;;;1.23;;
19854;SDS011;10088;47.946;2.532;2023-05-07T13:55:28;5.07;;;1.40;;
19854;SDS011;10088;47.946;2.532;2023-05-07T13:57:57;10.97;;;1.80;;
19854;SDS011;10088;47.946;2.532;2023-05-07T14:00:23;4.93;;;1.80;;
19854;SDS011;10088;47.946;2.532;2023-05-07T14:02:55;4.60;;;2.00;;
19854;SDS011;10088;47.946;2.532;2023-05-07T14:05:20;5.07;;;1.90;;
19854;SDS011;10088;47.946;2.532;2023-05-07T14:07:48;6.33;;;2.40;;
19854;SDS011;10088;47.946;2.532;2023-05-07T14:10:16;6.07;;;2.00;;
19854;SDS011;10088;47.946;2.532;2023-05-07T14:12:41;4.67;;;2.00;;
19854;SDS011;10088;47.946;2.532;2023-05-07T14:15:07;5.30;;;1.77;;
19854;SDS011;10088;47.946;2.532;2023-05-07T14:17:32;6.80;;;2.20;;
19854;SDS011;10088;47.946;2.532;2023-05-07T14:19:57;5.73;;;2.20;;
19854;SDS011;10088;47.946;2.532;2023-05-07T14:22:23;5.40;;;2.50;;
19854;SDS011;10088;47.946;2.532;2023-05-07T14:24:49;4.67;;;2.40;;
19854;SDS011;10088;47.946;2.532;2023-05-07T14:27:14;4.33;;;2.10;;
19854;SDS011;10088;47.946;2.532;2023-05-07T14:29:40;3.87;;;2.30;;
19854;SDS011;10088;47.946;2.532;2023-05-07T14:32:05;4.23;;;2.20;;
19854;SDS011;10088;47.946;2.532;2023-05-07T14:34:31;4.03;;;2.10;;
19854;SDS011;10088;47.946;2.532;2023-05-07T14:36:56;4.43;;;2.23;;
19854;SDS011;10088;47.946;2.532;2023-05-07T14:39:22;5.13;;;2.33;;
19854;SDS011;10088;47.946;2.532;2023-05-07T14:41:47;4.13;;;2.23;;
19854;SDS011;10088;47.946;2.532;2023-05-07T14:44:12;4.53;;;2.20;;
19854;SDS011;10088;47.946;2.532;2023-05-07T14:46:37;7.27;;;2.47;;
19854;SDS011;10088;47.946;2.532;2023-05-07T14:49:03;5.57;;;2.60;;
19854;SDS011;10088;47.946;2.532;2023-05-07T14:51:28;6.67;;;2.30;;
19854;SDS011;10088;47.946;2.532;2023-05-07T14:53:53;6.97;;;2.43;;
19854;SDS011;10088;47.946;2.532;2023-05-07T14:56:19;4.40;;;2.27;;
19854;SDS011;10088;47.946;2.532;2023-05-07T14:58:46;4.53;;;1.93;;
19854;SDS011;10088;47.946;2.532;2023-05-07T15:01:12;4.93;;;2.27;;
19854;SDS011;10088;47.946;2.532;2023-05-07T15:03:37;6.17;;;2.00;;
19854;SDS011;10088;47.946;2.532;2023-05-07T15:06:02;5.23;;;2.10;;
19854;SDS011;10088;47.946;2.532;2023-05-07T15:08:28;6.57;;;1.70;;
19854;SDS011;10088;47.946;2.532;2023-05-07T15:10:53;5.10;;;1.67;;
19854;SDS011;10088;47.946;2.532;2023-05-07T15:13:20;3.77;;;1.57;;
19854;SDS011;10088;47.946;2.532;2023-05-07T15:15:45;4.30;;;1.47;;
19854;SDS011;10088;47.946;2.532;2023-05-07T15:18:10;5.33;;;1.70;;